JST528 YMML-YSSY
Flight info
| Callsign | JST528 |
|---|---|
| Flight time | 1h 7m |
| Altitude | 39000 |
| Route | DOSEL2/34 DOSEL Y59 RIVET |
| Aircraft | A20N/M-SDE2E3FGHIRWXY/LB1 |
Departure
| Time | 2026-05-04 09:54 |
|---|---|
| Airport | Melbourne Airport (YMML) |
Arrival
| Time | 2026-05-04 11:02 |
|---|---|
| Airport | Sydney Kingsford Smith International Airport (YSSY) |
| Time | Latitude | Longitude | Altitude | Speed | Heading |
|---|---|---|---|---|---|
| 2026-05-04 09:17 | -37.67625 | 144.84754 | 381 ft | 0 kts | 350° |
| 2026-05-04 09:37 | -37.67672 | 144.84764 | 379 ft | 3 kts | 350° |
| 2026-05-04 09:37 | -37.67693 | 144.84763 | 378 ft | 3 kts | 16° |
| 2026-05-04 09:38 | -37.67714 | 144.84762 | 377 ft | 3 kts | 328° |
| 2026-05-04 09:38 | -37.67726 | 144.84784 | 377 ft | 3 kts | 265° |
| 2026-05-04 09:38 | -37.67724 | 144.84800 | 377 ft | 0 kts | 261° |
| 2026-05-04 09:42 | -37.67819 | 144.84545 | 369 ft | 14 kts | 255° |
| 2026-05-04 09:43 | -37.67836 | 144.84418 | 366 ft | 15 kts | 262° |
| 2026-05-04 09:43 | -37.67851 | 144.84294 | 366 ft | 14 kts | 262° |
| 2026-05-04 09:43 | -37.67853 | 144.84272 | 366 ft | 0 kts | 263° |
| 2026-05-04 09:46 | -37.67854 | 144.84266 | 365 ft | 2 kts | 263° |
| 2026-05-04 09:46 | -37.67859 | 144.84225 | 367 ft | 7 kts | 262° |
| 2026-05-04 09:46 | -37.67863 | 144.84189 | 364 ft | 0 kts | 261° |
| 2026-05-04 09:49 | -37.67866 | 144.84161 | 367 ft | 6 kts | 262° |
| 2026-05-04 09:51 | -37.67826 | 144.83961 | 363 ft | 0 kts | 352° |
| 2026-05-04 09:53 | -37.67656 | 144.83931 | 369 ft | 57 kts | 351° |
| 2026-05-04 09:53 | -37.67054 | 144.83818 | 390 ft | 116 kts | 352° |
| 2026-05-04 09:54 | -37.66098 | 144.83646 | 537 ft | 150 kts | 353° |
| 2026-05-04 09:54 | -37.65072 | 144.83461 | 1148 ft | 147 kts | 349° |
| 2026-05-04 09:54 | -37.64027 | 144.83251 | 1696 ft | 162 kts | 347° |
| 2026-05-04 09:54 | -37.62809 | 144.82996 | 2120 ft | 190 kts | 345° |
| 2026-05-04 09:55 | -37.61373 | 144.82701 | 2494 ft | 224 kts | 346° |
| 2026-05-04 09:55 | -37.59763 | 144.82486 | 3268 ft | 240 kts | 354° |
| 2026-05-04 09:55 | -37.58057 | 144.82904 | 4099 ft | 261 kts | 13° |
| 2026-05-04 09:55 | -37.56371 | 144.83831 | 4719 ft | 267 kts | 19° |
| 2026-05-04 09:56 | -37.54697 | 144.84875 | 4958 ft | 270 kts | 20° |
| 2026-05-04 09:56 | -37.53012 | 144.85943 | 5002 ft | 271 kts | 20° |
| 2026-05-04 09:56 | -37.51326 | 144.86993 | 5002 ft | 271 kts | 20° |
| 2026-05-04 09:56 | -37.49635 | 144.88032 | 5005 ft | 270 kts | 20° |
| 2026-05-04 09:57 | -37.47959 | 144.89055 | 5002 ft | 271 kts | 19° |
| 2026-05-04 09:57 | -37.46264 | 144.90090 | 5014 ft | 271 kts | 20° |
| 2026-05-04 09:57 | -37.44604 | 144.91232 | 5014 ft | 274 kts | 27° |
| 2026-05-04 09:57 | -37.43129 | 144.92789 | 5016 ft | 281 kts | 42° |
| 2026-05-04 09:58 | -37.41886 | 144.94739 | 5017 ft | 283 kts | 49° |
| 2026-05-04 09:58 | -37.40753 | 144.96740 | 5014 ft | 284 kts | 50° |
| 2026-05-04 09:58 | -37.39616 | 144.98784 | 5012 ft | 285 kts | 50° |
| 2026-05-04 10:00 | -37.31672 | 145.12885 | 7295 ft | 286 kts | 49° |
| 2026-05-04 10:00 | -37.30503 | 145.14943 | 8192 ft | 291 kts | 50° |
| 2026-05-04 10:02 | -37.21303 | 145.31122 | 13648 ft | 356 kts | 51° |
| 2026-05-04 10:04 | -37.10777 | 145.49518 | 19032 ft | 385 kts | 50° |
| 2026-05-04 10:04 | -37.09207 | 145.52254 | 19701 ft | 388 kts | 50° |
| 2026-05-04 10:04 | -37.07625 | 145.55009 | 20384 ft | 391 kts | 50° |
| 2026-05-04 10:04 | -37.06027 | 145.57789 | 21063 ft | 394 kts | 50° |
| 2026-05-04 10:05 | -37.04415 | 145.60603 | 21538 ft | 403 kts | 50° |
| 2026-05-04 10:05 | -37.02766 | 145.63465 | 21791 ft | 417 kts | 50° |
| 2026-05-04 10:05 | -37.01038 | 145.66450 | 22013 ft | 430 kts | 50° |
| 2026-05-04 10:05 | -36.99254 | 145.69529 | 22255 ft | 443 kts | 50° |
| 2026-05-04 10:06 | -36.97430 | 145.72682 | 22667 ft | 450 kts | 50° |
| 2026-05-04 10:06 | -36.95586 | 145.75873 | 23206 ft | 455 kts | 50° |
| 2026-05-04 10:06 | -36.93729 | 145.79088 | 23728 ft | 458 kts | 50° |
| 2026-05-04 10:08 | -36.82269 | 145.98825 | 26300 ft | 478 kts | 47° |
| 2026-05-04 10:08 | -36.80307 | 146.02192 | 26676 ft | 481 kts | 46° |
| 2026-05-04 10:08 | -36.78328 | 146.05583 | 27034 ft | 483 kts | 45° |
| 2026-05-04 10:08 | -36.76351 | 146.08968 | 27542 ft | 483 kts | 45° |
| 2026-05-04 10:09 | -36.74369 | 146.12368 | 27858 ft | 487 kts | 45° |
| 2026-05-04 10:09 | -36.72358 | 146.15807 | 28146 ft | 491 kts | 45° |
| 2026-05-04 10:09 | -36.70365 | 146.19208 | 28492 ft | 492 kts | 45° |
| 2026-05-04 10:09 | -36.68343 | 146.22651 | 28930 ft | 493 kts | 45° |
| 2026-05-04 10:10 | -36.66323 | 146.26096 | 29401 ft | 492 kts | 44° |
| 2026-05-04 10:10 | -36.64299 | 146.29550 | 29850 ft | 492 kts | 44° |
| 2026-05-04 10:10 | -36.62284 | 146.32983 | 30270 ft | 490 kts | 45° |
| 2026-05-04 10:10 | -36.60274 | 146.36406 | 30665 ft | 489 kts | 45° |
| 2026-05-04 10:11 | -36.58260 | 146.39828 | 31012 ft | 489 kts | 45° |
| 2026-05-04 10:11 | -36.56243 | 146.43248 | 31362 ft | 490 kts | 45° |
| 2026-05-04 10:11 | -36.54222 | 146.46668 | 31696 ft | 491 kts | 45° |
| 2026-05-04 10:11 | -36.52200 | 146.50089 | 32037 ft | 491 kts | 45° |
| 2026-05-04 10:12 | -36.50173 | 146.53514 | 32380 ft | 492 kts | 45° |
| 2026-05-04 10:12 | -36.48143 | 146.56941 | 32642 ft | 493 kts | 45° |
| 2026-05-04 10:12 | -36.46101 | 146.60382 | 32899 ft | 495 kts | 45° |
| 2026-05-04 10:12 | -36.44058 | 146.63826 | 33224 ft | 495 kts | 45° |
| 2026-05-04 10:13 | -36.42013 | 146.67271 | 33551 ft | 496 kts | 45° |
| 2026-05-04 10:13 | -36.39990 | 146.70675 | 33853 ft | 496 kts | 45° |
| 2026-05-04 10:13 | -36.37940 | 146.74122 | 34151 ft | 496 kts | 45° |
| 2026-05-04 10:13 | -36.35880 | 146.77580 | 34402 ft | 497 kts | 45° |
| 2026-05-04 10:14 | -36.33816 | 146.81042 | 34615 ft | 498 kts | 45° |
| 2026-05-04 10:14 | -36.31759 | 146.84489 | 34852 ft | 498 kts | 45° |
| 2026-05-04 10:16 | -36.17300 | 147.08615 | 36455 ft | 499 kts | 46° |
| 2026-05-04 10:16 | -36.15252 | 147.12018 | 36606 ft | 499 kts | 46° |
| 2026-05-04 10:16 | -36.13161 | 147.15493 | 36963 ft | 496 kts | 46° |
| 2026-05-04 10:16 | -36.11130 | 147.18862 | 37195 ft | 496 kts | 46° |
| 2026-05-04 10:17 | -36.09060 | 147.22290 | 37358 ft | 497 kts | 46° |
| 2026-05-04 10:17 | -36.06989 | 147.25715 | 37509 ft | 498 kts | 45° |
| 2026-05-04 10:19 | -35.92440 | 147.49695 | 38723 ft | 499 kts | 46° |
| 2026-05-04 10:19 | -35.90353 | 147.53121 | 38869 ft | 499 kts | 46° |
| 2026-05-04 10:19 | -35.88262 | 147.56552 | 38991 ft | 499 kts | 46° |
| 2026-05-04 10:19 | -35.86178 | 147.59969 | 39085 ft | 499 kts | 46° |
| 2026-05-04 10:20 | -35.82007 | 147.66795 | 39081 ft | 498 kts | 46° |
| 2026-05-04 10:20 | -35.77828 | 147.73618 | 39084 ft | 499 kts | 45° |
| 2026-05-04 10:21 | -35.73638 | 147.80444 | 39091 ft | 500 kts | 45° |
| 2026-05-04 10:21 | -35.69461 | 147.87237 | 39091 ft | 500 kts | 45° |
| 2026-05-04 10:22 | -35.63152 | 147.97475 | 39093 ft | 500 kts | 45° |
| 2026-05-04 10:23 | -35.58942 | 148.04290 | 39096 ft | 500 kts | 45° |
| 2026-05-04 10:25 | -35.42071 | 148.31462 | 39106 ft | 499 kts | 45° |
| 2026-05-04 10:25 | -35.37877 | 148.38184 | 39104 ft | 499 kts | 45° |
| 2026-05-04 10:26 | -35.33657 | 148.44934 | 39100 ft | 499 kts | 45° |
| 2026-05-04 10:26 | -35.30139 | 148.50552 | 39099 ft | 499 kts | 45° |
| 2026-05-04 10:27 | -35.25205 | 148.58417 | 39103 ft | 498 kts | 45° |
| 2026-05-04 10:27 | -35.21690 | 148.64008 | 39079 ft | 498 kts | 45° |
| 2026-05-04 10:28 | -35.17457 | 148.70724 | 39100 ft | 498 kts | 45° |
| 2026-05-04 10:28 | -35.13224 | 148.77430 | 39021 ft | 497 kts | 45° |
| 2026-05-04 10:28 | -35.11116 | 148.80768 | 38659 ft | 497 kts | 44° |
| 2026-05-04 10:29 | -35.09000 | 148.84116 | 38118 ft | 497 kts | 44° |
| 2026-05-04 10:29 | -35.06888 | 148.87453 | 37586 ft | 497 kts | 44° |
| 2026-05-04 10:29 | -35.04772 | 148.90791 | 37049 ft | 496 kts | 44° |
| 2026-05-04 10:29 | -35.02656 | 148.94128 | 36542 ft | 496 kts | 44° |
| 2026-05-04 10:30 | -35.00543 | 148.97456 | 36053 ft | 496 kts | 43° |
| 2026-05-04 10:30 | -34.98434 | 149.00776 | 35573 ft | 495 kts | 43° |
| 2026-05-04 10:30 | -34.96347 | 149.04057 | 35112 ft | 495 kts | 43° |
| 2026-05-04 10:30 | -34.94241 | 149.07365 | 34631 ft | 493 kts | 43° |
| 2026-05-04 10:31 | -34.92136 | 149.10670 | 34178 ft | 492 kts | 43° |
| 2026-05-04 10:31 | -34.90037 | 149.13962 | 33636 ft | 491 kts | 43° |
| 2026-05-04 10:32 | -34.77813 | 149.33116 | 30635 ft | 447 kts | 43° |
| 2026-05-04 10:33 | -34.75928 | 149.36061 | 30141 ft | 436 kts | 42° |
| 2026-05-04 10:33 | -34.74147 | 149.39014 | 29568 ft | 435 kts | 50° |
| 2026-05-04 10:33 | -34.72690 | 149.42156 | 29047 ft | 427 kts | 51° |
| 2026-05-04 10:33 | -34.71260 | 149.45298 | 28516 ft | 422 kts | 52° |
| 2026-05-04 10:34 | -34.69870 | 149.48438 | 28001 ft | 422 kts | 52° |
| 2026-05-04 10:34 | -34.68494 | 149.51583 | 27476 ft | 421 kts | 52° |
| 2026-05-04 10:34 | -34.67129 | 149.54724 | 26969 ft | 420 kts | 53° |
| 2026-05-04 10:34 | -34.65769 | 149.57854 | 26475 ft | 418 kts | 52° |
| 2026-05-04 10:35 | -34.64409 | 149.60978 | 25951 ft | 417 kts | 53° |
| 2026-05-04 10:35 | -34.63050 | 149.64094 | 25467 ft | 415 kts | 53° |
| 2026-05-04 10:35 | -34.61706 | 149.67171 | 25157 ft | 408 kts | 53° |
| 2026-05-04 10:35 | -34.60401 | 149.70168 | 25104 ft | 396 kts | 53° |
| 2026-05-04 10:36 | -34.59116 | 149.73109 | 25097 ft | 394 kts | 52° |
| 2026-05-04 10:36 | -34.57822 | 149.76044 | 25096 ft | 395 kts | 52° |
| 2026-05-04 10:36 | -34.56534 | 149.78957 | 25095 ft | 396 kts | 52° |
| 2026-05-04 10:36 | -34.55233 | 149.81901 | 25094 ft | 396 kts | 52° |
| 2026-05-04 10:37 | -34.53934 | 149.84842 | 25089 ft | 396 kts | 52° |
| 2026-05-04 10:37 | -34.52634 | 149.87790 | 25088 ft | 396 kts | 52° |
| 2026-05-04 10:37 | -34.51336 | 149.90733 | 25081 ft | 396 kts | 52° |
| 2026-05-04 10:37 | -34.50038 | 149.93670 | 25089 ft | 395 kts | 52° |
| 2026-05-04 10:39 | -34.42235 | 150.11281 | 25076 ft | 395 kts | 52° |
| 2026-05-04 10:39 | -34.40935 | 150.14206 | 25068 ft | 395 kts | 52° |
| 2026-05-04 10:39 | -34.39632 | 150.17138 | 25070 ft | 395 kts | 52° |
| 2026-05-04 10:40 | -34.38346 | 150.20031 | 24779 ft | 395 kts | 53° |
| 2026-05-04 10:40 | -34.37045 | 150.22954 | 24266 ft | 397 kts | 53° |
| 2026-05-04 10:40 | -34.35722 | 150.25915 | 23627 ft | 401 kts | 53° |
| 2026-05-04 10:40 | -34.34386 | 150.28901 | 22861 ft | 405 kts | 53° |
| 2026-05-04 10:41 | -34.33040 | 150.31915 | 22109 ft | 409 kts | 54° |
| 2026-05-04 10:41 | -34.31681 | 150.34959 | 21385 ft | 412 kts | 54° |
| 2026-05-04 10:41 | -34.30315 | 150.38012 | 20668 ft | 413 kts | 54° |
| 2026-05-04 10:41 | -34.28950 | 150.41043 | 19925 ft | 407 kts | 54° |
| 2026-05-04 10:42 | -34.27614 | 150.44032 | 19221 ft | 400 kts | 54° |
| 2026-05-04 10:42 | -34.26304 | 150.46977 | 18522 ft | 394 kts | 55° |
| 2026-05-04 10:42 | -34.25015 | 150.49870 | 17758 ft | 388 kts | 55° |
| 2026-05-04 10:42 | -34.23741 | 150.52720 | 16978 ft | 382 kts | 55° |
| 2026-05-04 10:43 | -34.22489 | 150.55524 | 16220 ft | 376 kts | 55° |
| 2026-05-04 10:44 | -34.14271 | 150.73819 | 11357 ft | 336 kts | 56° |
| 2026-05-04 10:45 | -34.13159 | 150.76284 | 10660 ft | 332 kts | 56° |
| 2026-05-04 10:45 | -34.12061 | 150.78717 | 10008 ft | 328 kts | 56° |
| 2026-05-04 10:45 | -34.10980 | 150.81113 | 9349 ft | 322 kts | 56° |
| 2026-05-04 10:45 | -34.09919 | 150.83470 | 8711 ft | 316 kts | 56° |
| 2026-05-04 10:46 | -34.08885 | 150.85773 | 8095 ft | 310 kts | 56° |
| 2026-05-04 10:46 | -34.07859 | 150.88051 | 7481 ft | 306 kts | 56° |
| 2026-05-04 10:46 | -34.06852 | 150.90287 | 6961 ft | 300 kts | 56° |
| 2026-05-04 10:46 | -34.05867 | 150.92474 | 6487 ft | 293 kts | 56° |
| 2026-05-04 10:47 | -34.04906 | 150.94606 | 6118 ft | 283 kts | 56° |
| 2026-05-04 10:47 | -34.04000 | 150.96634 | 6030 ft | 267 kts | 58° |
| 2026-05-04 10:47 | -34.03369 | 150.98693 | 6021 ft | 268 kts | 75° |
| 2026-05-04 10:47 | -34.03413 | 151.00959 | 6022 ft | 275 kts | 103° |
| 2026-05-04 10:49 | -34.13692 | 151.09242 | 5017 ft | 245 kts | 172° |
| 2026-05-04 10:49 | -34.15370 | 151.09661 | 4781 ft | 246 kts | 172° |
| 2026-05-04 10:50 | -34.17027 | 151.10080 | 4527 ft | 246 kts | 172° |
| 2026-05-04 10:51 | -34.28440 | 151.13053 | 3011 ft | 236 kts | 171° |
| 2026-05-04 10:52 | -34.30042 | 151.13474 | 3004 ft | 235 kts | 170° |
| 2026-05-04 10:52 | -34.31635 | 151.13933 | 3003 ft | 236 kts | 162° |
| 2026-05-04 10:52 | -34.32966 | 151.15064 | 3007 ft | 236 kts | 127° |
| 2026-05-04 10:54 | -34.28088 | 151.24280 | 3006 ft | 191 kts | 33° |
| 2026-05-04 10:54 | -34.26963 | 151.25012 | 3005 ft | 183 kts | 10° |
| 2026-05-04 10:56 | -34.18386 | 151.23922 | 3019 ft | 179 kts | 345° |
| 2026-05-04 10:56 | -34.17171 | 151.23599 | 3012 ft | 179 kts | 345° |
| 2026-05-04 10:56 | -34.15951 | 151.23272 | 3020 ft | 180 kts | 345° |
| 2026-05-04 10:57 | -34.14734 | 151.22946 | 3016 ft | 179 kts | 345° |
| 2026-05-04 10:57 | -34.13532 | 151.22623 | 3028 ft | 178 kts | 345° |
| 2026-05-04 10:57 | -34.12340 | 151.22304 | 3021 ft | 173 kts | 345° |
| 2026-05-04 10:57 | -34.11169 | 151.21993 | 2964 ft | 172 kts | 345° |
| 2026-05-04 10:58 | -34.10001 | 151.21686 | 2747 ft | 171 kts | 345° |
| 2026-05-04 10:58 | -34.08847 | 151.21377 | 2490 ft | 169 kts | 346° |
| 2026-05-04 10:58 | -34.07709 | 151.21074 | 2256 ft | 165 kts | 346° |
| 2026-05-04 10:58 | -34.06610 | 151.20783 | 2039 ft | 159 kts | 346° |
| 2026-05-04 10:59 | -34.05549 | 151.20501 | 1840 ft | 154 kts | 346° |
| 2026-05-04 10:59 | -34.04521 | 151.20228 | 1637 ft | 152 kts | 346° |
| 2026-05-04 10:59 | -34.03485 | 151.19952 | 1434 ft | 153 kts | 347° |
| 2026-05-04 10:59 | -34.02448 | 151.19678 | 1255 ft | 149 kts | 348° |
| 2026-05-04 11:00 | -34.01481 | 151.19422 | 1042 ft | 135 kts | 348° |
| 2026-05-04 11:01 | -33.95451 | 151.17811 | 26 ft | 99 kts | 348° |
| 2026-05-04 11:02 | -33.94956 | 151.17684 | 24 ft | 46 kts | 348° |
| 2026-05-04 11:02 | -33.94727 | 151.17650 | 26 ft | 28 kts | 0° |
| 2026-05-04 11:05 | -33.93927 | 151.17620 | 22 ft | 13 kts | 348° |
| 2026-05-04 11:06 | -33.93782 | 151.17582 | 22 ft | 29 kts | 348° |
| 2026-05-04 11:06 | -33.93657 | 151.17609 | 27 ft | 17 kts | 68° |
| 2026-05-04 11:06 | -33.93665 | 151.17738 | 33 ft | 18 kts | 100° |
| 2026-05-04 11:06 | -33.93634 | 151.17814 | 31 ft | 7 kts | 9° |
| 2026-05-04 11:08 | -33.93564 | 151.17764 | 33 ft | 0 kts | 281° |